Aviation Digital Data Service (ADDS)

Output produced by METARs form (0921 UTC 19 April 2019)
found at http://www.aviationweather.gov/metar/data/
 
METAR text: EDDK 190850Z 10008KT 060V140 CAVOK 20/03 Q1028 NOSIG
Conditions at: EDDK (KOELN/BONN , DE) observed 0850 UTC 19 April 2019
Temperature: 20.0°C (68°F)
Dewpoint: 3.0°C (37°F) [RH = 32%]
Pressure (altimeter): 30.35 inches Hg (1028.0 mb)
Winds: from the E (100 degrees) at 9 MPH (8 knots; 4.1 m/s)
Visibility: 6 or more miles (10+ km)
Ceiling: ceiling and visibility are OK
Clouds: unknown
Weather: no significant weather observed at this time

METAR text: EDDK 190820Z 11010KT 070V140 CAVOK 19/03 Q1028 NOSIG
Conditions at: EDDK (KOELN/BONN , DE) observed 0820 UTC 19 April 2019
Temperature: 19.0°C (66°F)
Dewpoint: 3.0°C (37°F) [RH = 34%]
Pressure (altimeter): 30.35 inches Hg (1028.0 mb)
Winds: from the ESE (110 degrees) at 12 MPH (10 knots; 5.1 m/s)
Visibility: 6 or more miles (10+ km)
Ceiling: ceiling and visibility are OK
Clouds: unknown
Weather: no significant weather observed at this time

METAR text: EDDK 190750Z 10007KT 050V140 CAVOK 18/04 Q1028 NOSIG
Conditions at: EDDK (KOELN/BONN , DE) observed 0750 UTC 19 April 2019
Temperature: 18.0°C (64°F)
Dewpoint: 4.0°C (39°F) [RH = 39%]
Pressure (altimeter): 30.35 inches Hg (1028.0 mb)
Winds: from the E (100 degrees) at 8 MPH (7 knots; 3.6 m/s)
Visibility: 6 or more miles (10+ km)
Ceiling: ceiling and visibility are OK
Clouds: unknown
Weather: no significant weather observed at this time

METAR text: EDDK 190720Z 09008KT 050V130 CAVOK 17/04 Q1028 NOSIG
Conditions at: EDDK (KOELN/BONN , DE) observed 0720 UTC 19 April 2019
Temperature: 17.0°C (63°F)
Dewpoint: 4.0°C (39°F) [RH = 42%]
Pressure (altimeter): 30.35 inches Hg (1028.0 mb)
Winds: from the E (90 degrees) at 9 MPH (8 knots; 4.1 m/s)
Visibility: 6 or more miles (10+ km)
Ceiling: ceiling and visibility are OK
Clouds: unknown
Weather: no significant weather observed at this time

METAR text: EDDK 190650Z 10008KT 070V130 CAVOK 16/03 Q1028 NOSIG
Conditions at: EDDK (KOELN/BONN , DE) observed 0650 UTC 19 April 2019
Temperature: 16.0°C (61°F)
Dewpoint: 3.0°C (37°F) [RH = 42%]
Pressure (altimeter): 30.35 inches Hg (1028.0 mb)
Winds: from the E (100 degrees) at 9 MPH (8 knots; 4.1 m/s)
Visibility: 6 or more miles (10+ km)
Ceiling: ceiling and visibility are OK
Clouds: unknown
Weather: no significant weather observed at this time

METAR text: EDDK 190620Z 10005KT 060V140 CAVOK 15/03 Q1027 NOSIG
Conditions at: EDDK (KOELN/BONN , DE) observed 0620 UTC 19 April 2019
Temperature: 15.0°C (59°F)
Dewpoint: 3.0°C (37°F) [RH = 44%]
Pressure (altimeter): 30.32 inches Hg (1027.0 mb)
Winds: from the E (100 degrees) at 6 MPH (5 knots; 2.6 m/s)
Visibility: 6 or more miles (10+ km)
Ceiling: ceiling and visibility are OK
Clouds: unknown
Weather: no significant weather observed at this time

METAR text: EDDK 190550Z 11003KT 070V140 CAVOK 13/03 Q1027 NOSIG
Conditions at: EDDK (KOELN/BONN , DE) observed 0550 UTC 19 April 2019
Temperature: 13.0°C (55°F)
Dewpoint: 3.0°C (37°F) [RH = 51%]
Pressure (altimeter): 30.32 inches Hg (1027.0 mb)
Winds: from the ESE (110 degrees) at 3 MPH (3 knots; 1.5 m/s)
Visibility: 6 or more miles (10+ km)
Ceiling: ceiling and visibility are OK
Clouds: unknown
Weather: no significant weather observed at this time

METAR text: EDDK 190520Z 13004KT 080V160 CAVOK 10/02 Q1027 NOSIG
Conditions at: EDDK (KOELN/BONN , DE) observed 0520 UTC 19 April 2019
Temperature: 10.0°C (50°F)
Dewpoint: 2.0°C (36°F) [RH = 57%]
Pressure (altimeter): 30.32 inches Hg (1027.0 mb)
Winds: from the SE (130 degrees) at 5 MPH (4 knots; 2.1 m/s)
Visibility: 6 or more miles (10+ km)
Ceiling: ceiling and visibility are OK
Clouds: unknown
Weather: no significant weather observed at this time

METAR text: EDDK 190450Z 14003KT 090V190 CAVOK 11/02 Q1027 NOSIG
Conditions at: EDDK (KOELN/BONN , DE) observed 0450 UTC 19 April 2019
Temperature: 11.0°C (52°F)
Dewpoint: 2.0°C (36°F) [RH = 54%]
Pressure (altimeter): 30.32 inches Hg (1027.0 mb)
Winds: from the SE (140 degrees) at 3 MPH (3 knots; 1.5 m/s)
Visibility: 6 or more miles (10+ km)
Ceiling: ceiling and visibility are OK
Clouds: unknown
Weather: no significant weather observed at this time

METAR text: EDDK 190420Z 11003KT 070V160 CAVOK 11/02 Q1027 NOSIG
Conditions at: EDDK (KOELN/BONN , DE) observed 0420 UTC 19 April 2019
Temperature: 11.0°C (52°F)
Dewpoint: 2.0°C (36°F) [RH = 54%]
Pressure (altimeter): 30.32 inches Hg (1027.0 mb)
Winds: from the ESE (110 degrees) at 3 MPH (3 knots; 1.5 m/s)
Visibility: 6 or more miles (10+ km)
Ceiling: ceiling and visibility are OK
Clouds: unknown
Weather: no significant weather observed at this time

METAR text: EDDK 190350Z 11003KT 070V140 CAVOK 12/02 Q1027 NOSIG
Conditions at: EDDK (KOELN/BONN , DE) observed 0350 UTC 19 April 2019
Temperature: 12.0°C (54°F)
Dewpoint: 2.0°C (36°F) [RH = 50%]
Pressure (altimeter): 30.32 inches Hg (1027.0 mb)
Winds: from the ESE (110 degrees) at 3 MPH (3 knots; 1.5 m/s)
Visibility: 6 or more miles (10+ km)
Ceiling: ceiling and visibility are OK
Clouds: unknown
Weather: no significant weather observed at this time

METAR text: EDDK 190320Z 11003KT 060V140 CAVOK 11/02 Q1026 NOSIG
Conditions at: EDDK (KOELN/BONN , DE) observed 0320 UTC 19 April 2019
Temperature: 11.0°C (52°F)
Dewpoint: 2.0°C (36°F) [RH = 54%]
Pressure (altimeter): 30.30 inches Hg (1026.0 mb)
Winds: from the ESE (110 degrees) at 3 MPH (3 knots; 1.5 m/s)
Visibility: 6 or more miles (10+ km)
Ceiling: ceiling and visibility are OK
Clouds: unknown
Weather: no significant weather observed at this time

METAR text: EDDK 190250Z 13004KT 090V150 CAVOK 10/02 Q1026 NOSIG
Conditions at: EDDK (KOELN/BONN , DE) observed 0250 UTC 19 April 2019
Temperature: 10.0°C (50°F)
Dewpoint: 2.0°C (36°F) [RH = 57%]
Pressure (altimeter): 30.30 inches Hg (1026.0 mb)
Winds: from the SE (130 degrees) at 5 MPH (4 knots; 2.1 m/s)
Visibility: 6 or more miles (10+ km)
Ceiling: ceiling and visibility are OK
Clouds: unknown
Weather: no significant weather observed at this time

METAR text: EDDK 190220Z VRB02KT CAVOK 11/02 Q1026 NOSIG
Conditions at: EDDK (KOELN/BONN , DE) observed 0220 UTC 19 April 2019
Temperature: 11.0°C (52°F)
Dewpoint: 2.0°C (36°F) [RH = 54%]
Pressure (altimeter): 30.30 inches Hg (1026.0 mb)
Winds: variable direction winds at 2 MPH (2 knots; 1.0 m/s)
Visibility: 6 or more miles (10+ km)
Ceiling: ceiling and visibility are OK
Clouds: unknown
Weather: no significant weather observed at this time

METAR text: EDDK 190150Z VRB02KT CAVOK 12/02 Q1026 NOSIG
Conditions at: EDDK (KOELN/BONN , DE) observed 0150 UTC 19 April 2019
Temperature: 12.0°C (54°F)
Dewpoint: 2.0°C (36°F) [RH = 50%]
Pressure (altimeter): 30.30 inches Hg (1026.0 mb)
Winds: variable direction winds at 2 MPH (2 knots; 1.0 m/s)
Visibility: 6 or more miles (10+ km)
Ceiling: ceiling and visibility are OK
Clouds: unknown
Weather: no significant weather observed at this time

METAR text: EDDK 190120Z 11003KT 070V150 CAVOK 12/02 Q1026 NOSIG
Conditions at: EDDK (KOELN/BONN , DE) observed 0120 UTC 19 April 2019
Temperature: 12.0°C (54°F)
Dewpoint: 2.0°C (36°F) [RH = 50%]
Pressure (altimeter): 30.30 inches Hg (1026.0 mb)
Winds: from the ESE (110 degrees) at 3 MPH (3 knots; 1.5 m/s)
Visibility: 6 or more miles (10+ km)
Ceiling: ceiling and visibility are OK
Clouds: unknown
Weather: no significant weather observed at this time

METAR text: EDDK 190050Z 12004KT 090V150 CAVOK 13/02 Q1026 NOSIG
Conditions at: EDDK (KOELN/BONN , DE) observed 0050 UTC 19 April 2019
Temperature: 13.0°C (55°F)
Dewpoint: 2.0°C (36°F) [RH = 47%]
Pressure (altimeter): 30.30 inches Hg (1026.0 mb)
Winds: from the ESE (120 degrees) at 5 MPH (4 knots; 2.1 m/s)
Visibility: 6 or more miles (10+ km)
Ceiling: ceiling and visibility are OK
Clouds: unknown
Weather: no significant weather observed at this time

METAR text: EDDK 190020Z 09005KT 070V140 CAVOK 14/02 Q1026 NOSIG
Conditions at: EDDK (KOELN/BONN , DE) observed 0020 UTC 19 April 2019
Temperature: 14.0°C (57°F)
Dewpoint: 2.0°C (36°F) [RH = 44%]
Pressure (altimeter): 30.30 inches Hg (1026.0 mb)
Winds: from the E (90 degrees) at 6 MPH (5 knots; 2.6 m/s)
Visibility: 6 or more miles (10+ km)
Ceiling: ceiling and visibility are OK
Clouds: unknown
Weather: no significant weather observed at this time

METAR text: EDDK 182350Z 08008KT CAVOK 15/02 Q1026 NOSIG
Conditions at: EDDK (KOELN/BONN , DE) observed 2350 UTC 18 April 2019
Temperature: 15.0°C (59°F)
Dewpoint: 2.0°C (36°F) [RH = 41%]
Pressure (altimeter): 30.30 inches Hg (1026.0 mb)
Winds: from the E (80 degrees) at 9 MPH (8 knots; 4.1 m/s)
Visibility: 6 or more miles (10+ km)
Ceiling: ceiling and visibility are OK
Clouds: unknown
Weather: no significant weather observed at this time

METAR text: EDDK 182320Z 08009KT CAVOK 15/03 Q1026 NOSIG
Conditions at: EDDK (KOELN/BONN , DE) observed 2320 UTC 18 April 2019
Temperature: 15.0°C (59°F)
Dewpoint: 3.0°C (37°F) [RH = 44%]
Pressure (altimeter): 30.30 inches Hg (1026.0 mb)
Winds: from the E (80 degrees) at 10 MPH (9 knots; 4.6 m/s)
Visibility: 6 or more miles (10+ km)
Ceiling: ceiling and visibility are OK
Clouds: unknown
Weather: no significant weather observed at this time

METAR text: EDDK 182250Z 08009KT CAVOK 15/03 Q1026 NOSIG
Conditions at: EDDK (KOELN/BONN , DE) observed 2250 UTC 18 April 2019
Temperature: 15.0°C (59°F)
Dewpoint: 3.0°C (37°F) [RH = 44%]
Pressure (altimeter): 30.30 inches Hg (1026.0 mb)
Winds: from the E (80 degrees) at 10 MPH (9 knots; 4.6 m/s)
Visibility: 6 or more miles (10+ km)
Ceiling: ceiling and visibility are OK
Clouds: unknown
Weather: no significant weather observed at this time

METAR text: EDDK 182220Z 07009KT CAVOK 16/03 Q1026 NOSIG
Conditions at: EDDK (KOELN/BONN , DE) observed 2220 UTC 18 April 2019
Temperature: 16.0°C (61°F)
Dewpoint: 3.0°C (37°F) [RH = 42%]
Pressure (altimeter): 30.30 inches Hg (1026.0 mb)
Winds: from the ENE (70 degrees) at 10 MPH (9 knots; 4.6 m/s)
Visibility: 6 or more miles (10+ km)
Ceiling: ceiling and visibility are OK
Clouds: unknown
Weather: no significant weather observed at this time

METAR text: EDDK 182150Z 07010KT CAVOK 16/03 Q1025 NOSIG
Conditions at: EDDK (KOELN/BONN , DE) observed 2150 UTC 18 April 2019
Temperature: 16.0°C (61°F)
Dewpoint: 3.0°C (37°F) [RH = 42%]
Pressure (altimeter): 30.27 inches Hg (1025.0 mb)
Winds: from the ENE (70 degrees) at 12 MPH (10 knots; 5.1 m/s)
Visibility: 6 or more miles (10+ km)
Ceiling: ceiling and visibility are OK
Clouds: unknown
Weather: no significant weather observed at this time

METAR text: EDDK 182120Z 07009KT CAVOK 17/03 Q1025 NOSIG
Conditions at: EDDK (KOELN/BONN , DE) observed 2120 UTC 18 April 2019
Temperature: 17.0°C (63°F)
Dewpoint: 3.0°C (37°F) [RH = 39%]
Pressure (altimeter): 30.27 inches Hg (1025.0 mb)
Winds: from the ENE (70 degrees) at 10 MPH (9 knots; 4.6 m/s)
Visibility: 6 or more miles (10+ km)
Ceiling: ceiling and visibility are OK
Clouds: unknown
Weather: no significant weather observed at this time

METAR text: EDDK 182050Z 08008KT CAVOK 17/03 Q1025 NOSIG
Conditions at: EDDK (KOELN/BONN , DE) observed 2050 UTC 18 April 2019
Temperature: 17.0°C (63°F)
Dewpoint: 3.0°C (37°F) [RH = 39%]
Pressure (altimeter): 30.27 inches Hg (1025.0 mb)
Winds: from the E (80 degrees) at 9 MPH (8 knots; 4.1 m/s)
Visibility: 6 or more miles (10+ km)
Ceiling: ceiling and visibility are OK
Clouds: unknown
Weather: no significant weather observed at this time

METAR text: EDDK 182020Z 08008KT CAVOK 18/03 Q1025 NOSIG
Conditions at: EDDK (KOELN/BONN , DE) observed 2020 UTC 18 April 2019
Temperature: 18.0°C (64°F)
Dewpoint: 3.0°C (37°F) [RH = 37%]
Pressure (altimeter): 30.27 inches Hg (1025.0 mb)
Winds: from the E (80 degrees) at 9 MPH (8 knots; 4.1 m/s)
Visibility: 6 or more miles (10+ km)
Ceiling: ceiling and visibility are OK
Clouds: unknown
Weather: no significant weather observed at this time

METAR text: EDDK 181950Z 07009KT CAVOK 18/03 Q1024 NOSIG
Conditions at: EDDK (KOELN/BONN , DE) observed 1950 UTC 18 April 2019
Temperature: 18.0°C (64°F)
Dewpoint: 3.0°C (37°F) [RH = 37%]
Pressure (altimeter): 30.24 inches Hg (1024.0 mb)
Winds: from the ENE (70 degrees) at 10 MPH (9 knots; 4.6 m/s)
Visibility: 6 or more miles (10+ km)
Ceiling: ceiling and visibility are OK
Clouds: unknown
Weather: no significant weather observed at this time

METAR text: EDDK 181920Z 07009KT CAVOK 18/03 Q1024 NOSIG
Conditions at: EDDK (KOELN/BONN , DE) observed 1920 UTC 18 April 2019
Temperature: 18.0°C (64°F)
Dewpoint: 3.0°C (37°F) [RH = 37%]
Pressure (altimeter): 30.24 inches Hg (1024.0 mb)
Winds: from the ENE (70 degrees) at 10 MPH (9 knots; 4.6 m/s)
Visibility: 6 or more miles (10+ km)
Ceiling: ceiling and visibility are OK
Clouds: unknown
Weather: no significant weather observed at this time

METAR text: EDDK 181850Z 07008KT CAVOK 19/03 Q1024 NOSIG
Conditions at: EDDK (KOELN/BONN , DE) observed 1850 UTC 18 April 2019
Temperature: 19.0°C (66°F)
Dewpoint: 3.0°C (37°F) [RH = 34%]
Pressure (altimeter): 30.24 inches Hg (1024.0 mb)
Winds: from the ENE (70 degrees) at 9 MPH (8 knots; 4.1 m/s)
Visibility: 6 or more miles (10+ km)
Ceiling: ceiling and visibility are OK
Clouds: unknown
Weather: no significant weather observed at this time

METAR text: EDDK 181820Z 08009KT CAVOK 20/03 Q1024 NOSIG
Conditions at: EDDK (KOELN/BONN , DE) observed 1820 UTC 18 April 2019
Temperature: 20.0°C (68°F)
Dewpoint: 3.0°C (37°F) [RH = 32%]
Pressure (altimeter): 30.24 inches Hg (1024.0 mb)
Winds: from the E (80 degrees) at 10 MPH (9 knots; 4.6 m/s)
Visibility: 6 or more miles (10+ km)
Ceiling: ceiling and visibility are OK
Clouds: unknown
Weather: no significant weather observed at this time

METAR text: EDDK 181750Z 08010KT 050V110 CAVOK 21/03 Q1023 NOSIG
Conditions at: EDDK (KOELN/BONN , DE) observed 1750 UTC 18 April 2019
Temperature: 21.0°C (70°F)
Dewpoint: 3.0°C (37°F) [RH = 30%]
Pressure (altimeter): 30.21 inches Hg (1023.0 mb)
Winds: from the E (80 degrees) at 12 MPH (10 knots; 5.1 m/s)
Visibility: 6 or more miles (10+ km)
Ceiling: ceiling and visibility are OK
Clouds: unknown
Weather: no significant weather observed at this time

METAR text: EDDK 181720Z 09007KT 050V150 CAVOK 22/01 Q1023 NOSIG
Conditions at: EDDK (KOELN/BONN , DE) observed 1720 UTC 18 April 2019
Temperature: 22.0°C (72°F)
Dewpoint: 1.0°C (34°F) [RH = 25%]
Pressure (altimeter): 30.21 inches Hg (1023.0 mb)
Winds: from the E (90 degrees) at 8 MPH (7 knots; 3.6 m/s)
Visibility: 6 or more miles (10+ km)
Ceiling: ceiling and visibility are OK
Clouds: unknown
Weather: no significant weather observed at this time

METAR text: EDDK 181650Z 11011KT 060V150 CAVOK 23/01 Q1023 NOSIG
Conditions at: EDDK (KOELN/BONN , DE) observed 1650 UTC 18 April 2019
Temperature: 23.0°C (73°F)
Dewpoint: 1.0°C (34°F) [RH = 23%]
Pressure (altimeter): 30.21 inches Hg (1023.0 mb)
Winds: from the ESE (110 degrees) at 13 MPH (11 knots; 5.7 m/s)
Visibility: 6 or more miles (10+ km)
Ceiling: ceiling and visibility are OK
Clouds: unknown
Weather: no significant weather observed at this time

METAR text: EDDK 181620Z 10009KT 060V150 CAVOK 23/01 Q1023 NOSIG
Conditions at: EDDK (KOELN/BONN , DE) observed 1620 UTC 18 April 2019
Temperature: 23.0°C (73°F)
Dewpoint: 1.0°C (34°F) [RH = 23%]
Pressure (altimeter): 30.21 inches Hg (1023.0 mb)
Winds: from the E (100 degrees) at 10 MPH (9 knots; 4.6 m/s)
Visibility: 6 or more miles (10+ km)
Ceiling: ceiling and visibility are OK
Clouds: unknown
Weather: no significant weather observed at this time

METAR text: EDDK 181550Z 13009KT 090V160 CAVOK 23/02 Q1023 NOSIG
Conditions at: EDDK (KOELN/BONN , DE) observed 1550 UTC 18 April 2019
Temperature: 23.0°C (73°F)
Dewpoint: 2.0°C (36°F) [RH = 25%]
Pressure (altimeter): 30.21 inches Hg (1023.0 mb)
Winds: from the SE (130 degrees) at 10 MPH (9 knots; 4.6 m/s)
Visibility: 6 or more miles (10+ km)
Ceiling: ceiling and visibility are OK
Clouds: unknown
Weather: no significant weather observed at this time

METAR text: EDDK 181520Z 09010KT 050V150 CAVOK 23/01 Q1022 NOSIG
Conditions at: EDDK (KOELN/BONN , DE) observed 1520 UTC 18 April 2019
Temperature: 23.0°C (73°F)
Dewpoint: 1.0°C (34°F) [RH = 23%]
Pressure (altimeter): 30.18 inches Hg (1022.0 mb)
Winds: from the E (90 degrees) at 12 MPH (10 knots; 5.1 m/s)
Visibility: 6 or more miles (10+ km)
Ceiling: ceiling and visibility are OK
Clouds: unknown
Weather: no significant weather observed at this time

METAR text: EDDK 181450Z 10011KT 060V180 CAVOK 23/02 Q1023 NOSIG
Conditions at: EDDK (KOELN/BONN , DE) observed 1450 UTC 18 April 2019
Temperature: 23.0°C (73°F)
Dewpoint: 2.0°C (36°F) [RH = 25%]
Pressure (altimeter): 30.21 inches Hg (1023.0 mb)
Winds: from the E (100 degrees) at 13 MPH (11 knots; 5.7 m/s)
Visibility: 6 or more miles (10+ km)
Ceiling: ceiling and visibility are OK
Clouds: unknown
Weather: no significant weather observed at this time

METAR text: EDDK 181420Z 11011KT 070V160 CAVOK 23/03 Q1023 NOSIG
Conditions at: EDDK (KOELN/BONN , DE) observed 1420 UTC 18 April 2019
Temperature: 23.0°C (73°F)
Dewpoint: 3.0°C (37°F) [RH = 27%]
Pressure (altimeter): 30.21 inches Hg (1023.0 mb)
Winds: from the ESE (110 degrees) at 13 MPH (11 knots; 5.7 m/s)
Visibility: 6 or more miles (10+ km)
Ceiling: ceiling and visibility are OK
Clouds: unknown
Weather: no significant weather observed at this time

METAR text: EDDK 181350Z 09010KT 050V140 CAVOK 22/03 Q1023 NOSIG
Conditions at: EDDK (KOELN/BONN , DE) observed 1350 UTC 18 April 2019
Temperature: 22.0°C (72°F)
Dewpoint: 3.0°C (37°F) [RH = 29%]
Pressure (altimeter): 30.21 inches Hg (1023.0 mb)
Winds: from the E (90 degrees) at 12 MPH (10 knots; 5.1 m/s)
Visibility: 6 or more miles (10+ km)
Ceiling: ceiling and visibility are OK
Clouds: unknown
Weather: no significant weather observed at this time

METAR text: EDDK 181320Z 11010KT 050V150 CAVOK 22/03 Q1023 NOSIG
Conditions at: EDDK (KOELN/BONN , DE) observed 1320 UTC 18 April 2019
Temperature: 22.0°C (72°F)
Dewpoint: 3.0°C (37°F) [RH = 29%]
Pressure (altimeter): 30.21 inches Hg (1023.0 mb)
Winds: from the ESE (110 degrees) at 12 MPH (10 knots; 5.1 m/s)
Visibility: 6 or more miles (10+ km)
Ceiling: ceiling and visibility are OK
Clouds: unknown
Weather: no significant weather observed at this time

METAR text: EDDK 181250Z 09010KT 060V130 CAVOK 21/03 Q1024 NOSIG
Conditions at: EDDK (KOELN/BONN , DE) observed 1250 UTC 18 April 2019
Temperature: 21.0°C (70°F)
Dewpoint: 3.0°C (37°F) [RH = 30%]
Pressure (altimeter): 30.24 inches Hg (1024.0 mb)
Winds: from the E (90 degrees) at 12 MPH (10 knots; 5.1 m/s)
Visibility: 6 or more miles (10+ km)
Ceiling: ceiling and visibility are OK
Clouds: unknown
Weather: no significant weather observed at this time

METAR text: EDDK 181220Z 11015KT 050V140 CAVOK 21/03 Q1024 NOSIG
Conditions at: EDDK (KOELN/BONN , DE) observed 1220 UTC 18 April 2019
Temperature: 21.0°C (70°F)
Dewpoint: 3.0°C (37°F) [RH = 30%]
Pressure (altimeter): 30.24 inches Hg (1024.0 mb)
Winds: from the ESE (110 degrees) at 17 MPH (15 knots; 7.7 m/s)
Visibility: 6 or more miles (10+ km)
Ceiling: ceiling and visibility are OK
Clouds: unknown
Weather: no significant weather observed at this time

METAR text: EDDK 181150Z 11012KT 060V150 CAVOK 21/02 Q1024 NOSIG
Conditions at: EDDK (KOELN/BONN , DE) observed 1150 UTC 18 April 2019
Temperature: 21.0°C (70°F)
Dewpoint: 2.0°C (36°F) [RH = 28%]
Pressure (altimeter): 30.24 inches Hg (1024.0 mb)
Winds: from the ESE (110 degrees) at 14 MPH (12 knots; 6.2 m/s)
Visibility: 6 or more miles (10+ km)
Ceiling: ceiling and visibility are OK
Clouds: unknown
Weather: no significant weather observed at this time

METAR text: EDDK 181120Z 12010KT 050V150 CAVOK 21/02 Q1024 NOSIG
Conditions at: EDDK (KOELN/BONN , DE) observed 1120 UTC 18 April 2019
Temperature: 21.0°C (70°F)
Dewpoint: 2.0°C (36°F) [RH = 28%]
Pressure (altimeter): 30.24 inches Hg (1024.0 mb)
Winds: from the ESE (120 degrees) at 12 MPH (10 knots; 5.1 m/s)
Visibility: 6 or more miles (10+ km)
Ceiling: ceiling and visibility are OK
Clouds: unknown
Weather: no significant weather observed at this time

METAR text: EDDK 181050Z 08010KT 040V140 CAVOK 20/02 Q1024 NOSIG
Conditions at: EDDK (KOELN/BONN , DE) observed 1050 UTC 18 April 2019
Temperature: 20.0°C (68°F)
Dewpoint: 2.0°C (36°F) [RH = 30%]
Pressure (altimeter): 30.24 inches Hg (1024.0 mb)
Winds: from the E (80 degrees) at 12 MPH (10 knots; 5.1 m/s)
Visibility: 6 or more miles (10+ km)
Ceiling: ceiling and visibility are OK
Clouds: unknown
Weather: no significant weather observed at this time

METAR text: EDDK 181020Z 11010KT 060V150 CAVOK 19/04 Q1025 NOSIG
Conditions at: EDDK (KOELN/BONN , DE) observed 1020 UTC 18 April 2019
Temperature: 19.0°C (66°F)
Dewpoint: 4.0°C (39°F) [RH = 37%]
Pressure (altimeter): 30.27 inches Hg (1025.0 mb)
Winds: from the ESE (110 degrees) at 12 MPH (10 knots; 5.1 m/s)
Visibility: 6 or more miles (10+ km)
Ceiling: ceiling and visibility are OK
Clouds: unknown
Weather: no significant weather observed at this time

METAR text: EDDK 180950Z 10012KT 070V130 CAVOK 19/03 Q1025 NOSIG
Conditions at: EDDK (KOELN/BONN , DE) observed 0950 UTC 18 April 2019
Temperature: 19.0°C (66°F)
Dewpoint: 3.0°C (37°F) [RH = 34%]
Pressure (altimeter): 30.27 inches Hg (1025.0 mb)
Winds: from the E (100 degrees) at 14 MPH (12 knots; 6.2 m/s)
Visibility: 6 or more miles (10+ km)
Ceiling: ceiling and visibility are OK
Clouds: unknown
Weather: no significant weather observed at this time

METAR text: EDDK 180920Z 10007KT 060V160 CAVOK 19/05 Q1025 NOSIG
Conditions at: EDDK (KOELN/BONN , DE) observed 0920 UTC 18 April 2019
Temperature: 19.0°C (66°F)
Dewpoint: 5.0°C (41°F) [RH = 40%]
Pressure (altimeter): 30.27 inches Hg (1025.0 mb)
Winds: from the E (100 degrees) at 8 MPH (7 knots; 3.6 m/s)
Visibility: 6 or more miles (10+ km)
Ceiling: ceiling and visibility are OK
Clouds: unknown
Weather: no significant weather observed at this time

METAR text: EDDK 180850Z 10009KT 050V150 CAVOK 18/04 Q1025 NOSIG
Conditions at: EDDK (KOELN/BONN , DE) observed 0850 UTC 18 April 2019
Temperature: 18.0°C (64°F)
Dewpoint: 4.0°C (39°F) [RH = 39%]
Pressure (altimeter): 30.27 inches Hg (1025.0 mb)
Winds: from the E (100 degrees) at 10 MPH (9 knots; 4.6 m/s)
Visibility: 6 or more miles (10+ km)
Ceiling: ceiling and visibility are OK
Clouds: unknown
Weather: no significant weather observed at this time

METAR text: EDDK 180820Z 11009KT 070V150 CAVOK 17/05 Q1025 NOSIG
Conditions at: EDDK (KOELN/BONN , DE) observed 0820 UTC 18 April 2019
Temperature: 17.0°C (63°F)
Dewpoint: 5.0°C (41°F) [RH = 45%]
Pressure (altimeter): 30.27 inches Hg (1025.0 mb)
Winds: from the ESE (110 degrees) at 10 MPH (9 knots; 4.6 m/s)
Visibility: 6 or more miles (10+ km)
Ceiling: ceiling and visibility are OK
Clouds: unknown
Weather: no significant weather observed at this time

METAR text: EDDK 180750Z 11011KT 060V140 CAVOK 16/04 Q1025 NOSIG
Conditions at: EDDK (KOELN/BONN , DE) observed 0750 UTC 18 April 2019
Temperature: 16.0°C (61°F)
Dewpoint: 4.0°C (39°F) [RH = 45%]
Pressure (altimeter): 30.27 inches Hg (1025.0 mb)
Winds: from the ESE (110 degrees) at 13 MPH (11 knots; 5.7 m/s)
Visibility: 6 or more miles (10+ km)
Ceiling: ceiling and visibility are OK
Clouds: unknown
Weather: no significant weather observed at this time

METAR text: EDDK 180720Z 11009KT 070V150 CAVOK 15/04 Q1025 NOSIG
Conditions at: EDDK (KOELN/BONN , DE) observed 0720 UTC 18 April 2019
Temperature: 15.0°C (59°F)
Dewpoint: 4.0°C (39°F) [RH = 48%]
Pressure (altimeter): 30.27 inches Hg (1025.0 mb)
Winds: from the ESE (110 degrees) at 10 MPH (9 knots; 4.6 m/s)
Visibility: 6 or more miles (10+ km)
Ceiling: ceiling and visibility are OK
Clouds: unknown
Weather: no significant weather observed at this time

METAR text: EDDK 180650Z 10008KT 070V150 CAVOK 14/04 Q1025 NOSIG
Conditions at: EDDK (KOELN/BONN , DE) observed 0650 UTC 18 April 2019
Temperature: 14.0°C (57°F)
Dewpoint: 4.0°C (39°F) [RH = 51%]
Pressure (altimeter): 30.27 inches Hg (1025.0 mb)
Winds: from the E (100 degrees) at 9 MPH (8 knots; 4.1 m/s)
Visibility: 6 or more miles (10+ km)
Ceiling: ceiling and visibility are OK
Clouds: unknown
Weather: no significant weather observed at this time

METAR text: EDDK 180620Z 10008KT 070V130 CAVOK 13/03 Q1025 NOSIG
Conditions at: EDDK (KOELN/BONN , DE) observed 0620 UTC 18 April 2019
Temperature: 13.0°C (55°F)
Dewpoint: 3.0°C (37°F) [RH = 51%]
Pressure (altimeter): 30.27 inches Hg (1025.0 mb)
Winds: from the E (100 degrees) at 9 MPH (8 knots; 4.1 m/s)
Visibility: 6 or more miles (10+ km)
Ceiling: ceiling and visibility are OK
Clouds: unknown
Weather: no significant weather observed at this time

METAR text: EDDK 180550Z 09007KT CAVOK 12/03 Q1024 NOSIG
Conditions at: EDDK (KOELN/BONN , DE) observed 0550 UTC 18 April 2019
Temperature: 12.0°C (54°F)
Dewpoint: 3.0°C (37°F) [RH = 54%]
Pressure (altimeter): 30.24 inches Hg (1024.0 mb)
Winds: from the E (90 degrees) at 8 MPH (7 knots; 3.6 m/s)
Visibility: 6 or more miles (10+ km)
Ceiling: ceiling and visibility are OK
Clouds: unknown
Weather: no significant weather observed at this time

METAR text: EDDK 180520Z 09007KT CAVOK 12/03 Q1024 NOSIG
Conditions at: EDDK (KOELN/BONN , DE) observed 0520 UTC 18 April 2019
Temperature: 12.0°C (54°F)
Dewpoint: 3.0°C (37°F) [RH = 54%]
Pressure (altimeter): 30.24 inches Hg (1024.0 mb)
Winds: from the E (90 degrees) at 8 MPH (7 knots; 3.6 m/s)
Visibility: 6 or more miles (10+ km)
Ceiling: ceiling and visibility are OK
Clouds: unknown
Weather: no significant weather observed at this time

METAR text: EDDK 180450Z 09008KT CAVOK 11/03 Q1024 NOSIG
Conditions at: EDDK (KOELN/BONN , DE) observed 0450 UTC 18 April 2019
Temperature: 11.0°C (52°F)
Dewpoint: 3.0°C (37°F) [RH = 58%]
Pressure (altimeter): 30.24 inches Hg (1024.0 mb)
Winds: from the E (90 degrees) at 9 MPH (8 knots; 4.1 m/s)
Visibility: 6 or more miles (10+ km)
Ceiling: ceiling and visibility are OK
Clouds: unknown
Weather: no significant weather observed at this time

METAR text: EDDK 180420Z 09006KT CAVOK 11/02 Q1024 NOSIG
Conditions at: EDDK (KOELN/BONN , DE) observed 0420 UTC 18 April 2019
Temperature: 11.0°C (52°F)
Dewpoint: 2.0°C (36°F) [RH = 54%]
Pressure (altimeter): 30.24 inches Hg (1024.0 mb)
Winds: from the E (90 degrees) at 7 MPH (6 knots; 3.1 m/s)
Visibility: 6 or more miles (10+ km)
Ceiling: ceiling and visibility are OK
Clouds: unknown
Weather: no significant weather observed at this time

METAR text: EDDK 180350Z 11004KT 070V140 CAVOK 11/02 Q1024 NOSIG
Conditions at: EDDK (KOELN/BONN , DE) observed 0350 UTC 18 April 2019
Temperature: 11.0°C (52°F)
Dewpoint: 2.0°C (36°F) [RH = 54%]
Pressure (altimeter): 30.24 inches Hg (1024.0 mb)
Winds: from the ESE (110 degrees) at 5 MPH (4 knots; 2.1 m/s)
Visibility: 6 or more miles (10+ km)
Ceiling: ceiling and visibility are OK
Clouds: unknown
Weather: no significant weather observed at this time

METAR text: EDDK 180320Z 10004KT CAVOK 11/02 Q1024 NOSIG
Conditions at: EDDK (KOELN/BONN , DE) observed 0320 UTC 18 April 2019
Temperature: 11.0°C (52°F)
Dewpoint: 2.0°C (36°F) [RH = 54%]
Pressure (altimeter): 30.24 inches Hg (1024.0 mb)
Winds: from the E (100 degrees) at 5 MPH (4 knots; 2.1 m/s)
Visibility: 6 or more miles (10+ km)
Ceiling: ceiling and visibility are OK
Clouds: unknown
Weather: no significant weather observed at this time

METAR text: EDDK 180250Z 10005KT 070V130 CAVOK 12/02 Q1024 NOSIG
Conditions at: EDDK (KOELN/BONN , DE) observed 0250 UTC 18 April 2019
Temperature: 12.0°C (54°F)
Dewpoint: 2.0°C (36°F) [RH = 50%]
Pressure (altimeter): 30.24 inches Hg (1024.0 mb)
Winds: from the E (100 degrees) at 6 MPH (5 knots; 2.6 m/s)
Visibility: 6 or more miles (10+ km)
Ceiling: ceiling and visibility are OK
Clouds: unknown
Weather: no significant weather observed at this time

METAR text: EDDK 180220Z 09004KT CAVOK 12/02 Q1024 NOSIG
Conditions at: EDDK (KOELN/BONN , DE) observed 0220 UTC 18 April 2019
Temperature: 12.0°C (54°F)
Dewpoint: 2.0°C (36°F) [RH = 50%]
Pressure (altimeter): 30.24 inches Hg (1024.0 mb)
Winds: from the E (90 degrees) at 5 MPH (4 knots; 2.1 m/s)
Visibility: 6 or more miles (10+ km)
Ceiling: ceiling and visibility are OK
Clouds: unknown
Weather: no significant weather observed at this time

METAR text: EDDK 180150Z 08004KT CAVOK 13/02 Q1023 NOSIG
Conditions at: EDDK (KOELN/BONN , DE) observed 0150 UTC 18 April 2019
Temperature: 13.0°C (55°F)
Dewpoint: 2.0°C (36°F) [RH = 47%]
Pressure (altimeter): 30.21 inches Hg (1023.0 mb)
Winds: from the E (80 degrees) at 5 MPH (4 knots; 2.1 m/s)
Visibility: 6 or more miles (10+ km)
Ceiling: ceiling and visibility are OK
Clouds: unknown
Weather: no significant weather observed at this time

METAR text: EDDK 180120Z 09006KT CAVOK 13/01 Q1023 NOSIG
Conditions at: EDDK (KOELN/BONN , DE) observed 0120 UTC 18 April 2019
Temperature: 13.0°C (55°F)
Dewpoint: 1.0°C (34°F) [RH = 44%]
Pressure (altimeter): 30.21 inches Hg (1023.0 mb)
Winds: from the E (90 degrees) at 7 MPH (6 knots; 3.1 m/s)
Visibility: 6 or more miles (10+ km)
Ceiling: ceiling and visibility are OK
Clouds: unknown
Weather: no significant weather observed at this time

METAR text: EDDK 180050Z 09006KT CAVOK 13/01 Q1023 NOSIG
Conditions at: EDDK (KOELN/BONN , DE) observed 0050 UTC 18 April 2019
Temperature: 13.0°C (55°F)
Dewpoint: 1.0°C (34°F) [RH = 44%]
Pressure (altimeter): 30.21 inches Hg (1023.0 mb)
Winds: from the E (90 degrees) at 7 MPH (6 knots; 3.1 m/s)
Visibility: 6 or more miles (10+ km)
Ceiling: ceiling and visibility are OK
Clouds: unknown
Weather: no significant weather observed at this time

METAR text: EDDK 180020Z 10005KT 060V150 CAVOK 13/01 Q1023 NOSIG
Conditions at: EDDK (KOELN/BONN , DE) observed 0020 UTC 18 April 2019
Temperature: 13.0°C (55°F)
Dewpoint: 1.0°C (34°F) [RH = 44%]
Pressure (altimeter): 30.21 inches Hg (1023.0 mb)
Winds: from the E (100 degrees) at 6 MPH (5 knots; 2.6 m/s)
Visibility: 6 or more miles (10+ km)
Ceiling: ceiling and visibility are OK
Clouds: unknown
Weather: no significant weather observed at this time

METAR text: EDDK 172350Z 09006KT 060V120 CAVOK 14/01 Q1023 NOSIG
Conditions at: EDDK (KOELN/BONN , DE) observed 2350 UTC 17 April 2019
Temperature: 14.0°C (57°F)
Dewpoint: 1.0°C (34°F) [RH = 41%]
Pressure (altimeter): 30.21 inches Hg (1023.0 mb)
Winds: from the E (90 degrees) at 7 MPH (6 knots; 3.1 m/s)
Visibility: 6 or more miles (10+ km)
Ceiling: ceiling and visibility are OK
Clouds: unknown
Weather: no significant weather observed at this time

METAR text: EDDK 172320Z 10005KT 060V120 CAVOK 13/02 Q1023 NOSIG
Conditions at: EDDK (KOELN/BONN , DE) observed 2320 UTC 17 April 2019
Temperature: 13.0°C (55°F)
Dewpoint: 2.0°C (36°F) [RH = 47%]
Pressure (altimeter): 30.21 inches Hg (1023.0 mb)
Winds: from the E (100 degrees) at 6 MPH (5 knots; 2.6 m/s)
Visibility: 6 or more miles (10+ km)
Ceiling: ceiling and visibility are OK
Clouds: unknown
Weather: no significant weather observed at this time

METAR text: EDDK 172250Z VRB02KT CAVOK 12/03 Q1023 NOSIG
Conditions at: EDDK (KOELN/BONN , DE) observed 2250 UTC 17 April 2019
Temperature: 12.0°C (54°F)
Dewpoint: 3.0°C (37°F) [RH = 54%]
Pressure (altimeter): 30.21 inches Hg (1023.0 mb)
Winds: variable direction winds at 2 MPH (2 knots; 1.0 m/s)
Visibility: 6 or more miles (10+ km)
Ceiling: ceiling and visibility are OK
Clouds: unknown
Weather: no significant weather observed at this time

METAR text: EDDK 172220Z 12003KT CAVOK 12/03 Q1023 NOSIG
Conditions at: EDDK (KOELN/BONN , DE) observed 2220 UTC 17 April 2019
Temperature: 12.0°C (54°F)
Dewpoint: 3.0°C (37°F) [RH = 54%]
Pressure (altimeter): 30.21 inches Hg (1023.0 mb)
Winds: from the ESE (120 degrees) at 3 MPH (3 knots; 1.5 m/s)
Visibility: 6 or more miles (10+ km)
Ceiling: ceiling and visibility are OK
Clouds: unknown
Weather: no significant weather observed at this time

METAR text: EDDK 172150Z 15003KT 120V180 CAVOK 10/04 Q1023 NOSIG
Conditions at: EDDK (KOELN/BONN , DE) observed 2150 UTC 17 April 2019
Temperature: 10.0°C (50°F)
Dewpoint: 4.0°C (39°F) [RH = 66%]
Pressure (altimeter): 30.21 inches Hg (1023.0 mb)
Winds: from the SSE (150 degrees) at 3 MPH (3 knots; 1.5 m/s)
Visibility: 6 or more miles (10+ km)
Ceiling: ceiling and visibility are OK
Clouds: unknown
Weather: no significant weather observed at this time

Forecast for: EDDK (KOELN/BONN , DE)
Text: TAF EDDK 190500Z 1906/2012 11005KT CAVOK
Forecast period: 0600 to 0700 UTC 19 April 2019
Forecast type: FROM: standard forecast or significant change
Winds: from the ESE (110 degrees) at 6 MPH (5 knots; 2.6 m/s)
Visibility: 6 or more miles 10+ km)
Ceiling: unknown
Clouds: missing
Weather: NSW  (no significant weather)
Text: BECMG 1907/1909 11010KT
Forecast period: 0700 to 1800 UTC 19 April 2019
Forecast type: BECOMING: Conditions expected to become as follows by 0900 UTC 19 April 2019
Winds: from the ESE (110 degrees) at 12 MPH (10 knots; 5.1 m/s)
Visibility: 6 or more miles 10+ km)
Ceiling: unknown
Clouds: missing
Weather: NSW  (no significant weather)
Text: BECMG 1918/1920 10005KT
Forecast period: 1800 UTC 19 April 2019 to 1200 UTC 20 April 2019
Forecast type: BECOMING: Conditions expected to become as follows by 2000 UTC 19 April 2019
Winds: from the E (100 degrees) at 6 MPH (5 knots; 2.6 m/s)
Visibility: 6 or more miles 10+ km)
Ceiling: unknown
Clouds: missing
Weather: NSW  (no significant weather)